sensor_id;sensor_type;location;lat;lon;timestamp;pressure;altitude;pressure_sealevel;temperature;humidity
71770;BME280;66386;52.122;5.420;2023-04-04T00:00:23;103210.63;;;1.68;69.19
71770;BME280;66386;52.122;5.420;2023-04-04T00:02:49;103203.03;;;1.68;69.16
71770;BME280;66386;52.122;5.420;2023-04-04T00:05:17;103204.56;;;1.65;69.36
71770;BME280;66386;52.122;5.420;2023-04-04T00:07:47;103201.09;;;1.63;69.39
71770;BME280;66386;52.122;5.420;2023-04-04T00:10:14;103191.72;;;1.60;69.63
71770;BME280;66386;52.122;5.420;2023-04-04T00:12:41;103195.03;;;1.59;69.76
71770;BME280;66386;52.122;5.420;2023-04-04T00:15:09;103196.66;;;1.57;69.73
71770;BME280;66386;52.122;5.420;2023-04-04T00:17:36;103182.13;;;1.53;69.97
71770;BME280;66386;52.122;5.420;2023-04-04T00:20:03;103186.28;;;1.51;69.90
71770;BME280;66386;52.122;5.420;2023-04-04T00:22:29;103185.28;;;1.47;70.39
71770;BME280;66386;52.122;5.420;2023-04-04T00:24:56;103177.59;;;1.44;70.29
71770;BME280;66386;52.122;5.420;2023-04-04T00:27:23;103180.72;;;1.38;70.60
71770;BME280;66386;52.122;5.420;2023-04-04T00:29:49;103183.16;;;1.35;70.75
71770;BME280;66386;52.122;5.420;2023-04-04T00:32:16;103175.25;;;1.28;71.03
71770;BME280;66386;52.122;5.420;2023-04-04T00:34:42;103171.72;;;1.24;71.46
71770;BME280;66386;52.122;5.420;2023-04-04T00:37:10;103169.84;;;1.18;71.66
71770;BME280;66386;52.122;5.420;2023-04-04T00:39:38;103164.50;;;1.12;71.96
71770;BME280;66386;52.122;5.420;2023-04-04T00:42:04;103172.81;;;1.08;72.16
71770;BME280;66386;52.122;5.420;2023-04-04T00:44:31;103177.66;;;1.03;72.64
71770;BME280;66386;52.122;5.420;2023-04-04T00:47:01;103176.56;;;0.97;72.88
71770;BME280;66386;52.122;5.420;2023-04-04T00:49:29;103178.03;;;0.92;73.04
71770;BME280;66386;52.122;5.420;2023-04-04T00:51:55;103167.78;;;0.89;73.38
71770;BME280;66386;52.122;5.420;2023-04-04T00:54:23;103168.50;;;0.86;73.41
71770;BME280;66386;52.122;5.420;2023-04-04T00:56:49;103167.47;;;0.81;73.63
71770;BME280;66386;52.122;5.420;2023-04-04T00:59:21;103168.09;;;0.75;73.96
71770;BME280;66386;52.122;5.420;2023-04-04T01:01:49;103172.22;;;0.73;74.05
71770;BME280;66386;52.122;5.420;2023-04-04T01:04:16;103173.75;;;0.69;74.33
71770;BME280;66386;52.122;5.420;2023-04-04T01:06:44;103171.88;;;0.65;74.32
71770;BME280;66386;52.122;5.420;2023-04-04T01:09:11;103167.50;;;0.61;74.30
71770;BME280;66386;52.122;5.420;2023-04-04T01:11:38;103173.19;;;0.56;74.60
71770;BME280;66386;52.122;5.420;2023-04-04T01:14:04;103170.59;;;0.54;74.69
71770;BME280;66386;52.122;5.420;2023-04-04T01:16:31;103176.44;;;0.53;74.81
71770;BME280;66386;52.122;5.420;2023-04-04T01:18:58;103178.72;;;0.47;74.85
71770;BME280;66386;52.122;5.420;2023-04-04T01:21:25;103171.78;;;0.43;75.14
71770;BME280;66386;52.122;5.420;2023-04-04T01:24:00;103168.25;;;0.39;75.48
71770;BME280;66386;52.122;5.420;2023-04-04T01:26:27;103169.78;;;0.36;75.26
71770;BME280;66386;52.122;5.420;2023-04-04T01:28:58;103174.66;;;0.31;75.64
71770;BME280;66386;52.122;5.420;2023-04-04T01:31:34;103168.59;;;0.27;75.90
71770;BME280;66386;52.122;5.420;2023-04-04T01:39:48;103169.06;;;0.19;76.08
71770;BME280;66386;52.122;5.420;2023-04-04T01:42:19;103169.66;;;0.13;76.24
71770;BME280;66386;52.122;5.420;2023-04-04T01:44:45;103175.47;;;0.10;76.57
71770;BME280;66386;52.122;5.420;2023-04-04T01:47:12;103175.34;;;0.09;76.69
71770;BME280;66386;52.122;5.420;2023-04-04T01:49:39;103179.56;;;0.08;76.79
71770;BME280;66386;52.122;5.420;2023-04-04T01:52:06;103177.03;;;0.08;76.82
71770;BME280;66386;52.122;5.420;2023-04-04T01:54:32;103176.84;;;0.04;76.97
71770;BME280;66386;52.122;5.420;2023-04-04T01:57:01;103170.69;;;-0.02;77.25
71770;BME280;66386;52.122;5.420;2023-04-04T01:59:27;103175.63;;;-0.05;77.61
71770;BME280;66386;52.122;5.420;2023-04-04T02:01:54;103170.28;;;-0.11;77.91
71770;BME280;66386;52.122;5.420;2023-04-04T02:04:20;103173.53;;;-0.13;78.00
71770;BME280;66386;52.122;5.420;2023-04-04T02:06:47;103172.56;;;-0.17;78.15
71770;BME280;66386;52.122;5.420;2023-04-04T02:09:13;103168.16;;;-0.21;78.46
71770;BME280;66386;52.122;5.420;2023-04-04T02:11:40;103173.91;;;-0.24;78.44
71770;BME280;66386;52.122;5.420;2023-04-04T02:14:06;103178.13;;;-0.24;78.52
71770;BME280;66386;52.122;5.420;2023-04-04T02:16:33;103174.75;;;-0.25;78.63
71770;BME280;66386;52.122;5.420;2023-04-04T02:18:59;103177.19;;;-0.26;78.62
71770;BME280;66386;52.122;5.420;2023-04-04T02:21:26;103187.13;;;-0.29;78.52
71770;BME280;66386;52.122;5.420;2023-04-04T02:23:53;103185.34;;;-0.32;78.73
71770;BME280;66386;52.122;5.420;2023-04-04T02:26:19;103184.41;;;-0.34;78.91
71770;BME280;66386;52.122;5.420;2023-04-04T02:28:46;103188.47;;;-0.38;79.02
71770;BME280;66386;52.122;5.420;2023-04-04T02:31:13;103186.72;;;-0.39;79.15
71770;BME280;66386;52.122;5.420;2023-04-04T02:33:39;103188.31;;;-0.41;79.51
71770;BME280;66386;52.122;5.420;2023-04-04T02:36:06;103183.03;;;-0.45;79.71
71770;BME280;66386;52.122;5.420;2023-04-04T02:38:32;103181.25;;;-0.48;79.79
71770;BME280;66386;52.122;5.420;2023-04-04T02:40:59;103182.75;;;-0.51;80.02
71770;BME280;66386;52.122;5.420;2023-04-04T02:43:25;103170.84;;;-0.54;79.84
71770;BME280;66386;52.122;5.420;2023-04-04T02:45:52;103162.25;;;-0.58;80.05
71770;BME280;66386;52.122;5.420;2023-04-04T02:48:18;103157.94;;;-0.60;80.14
71770;BME280;66386;52.122;5.420;2023-04-04T02:50:45;103161.16;;;-0.63;79.98
71770;BME280;66386;52.122;5.420;2023-04-04T02:53:12;103154.34;;;-0.65;80.25
71770;BME280;66386;52.122;5.420;2023-04-04T02:55:39;103156.78;;;-0.67;80.52
71770;BME280;66386;52.122;5.420;2023-04-04T02:58:05;103158.28;;;-0.71;80.49
71770;BME280;66386;52.122;5.420;2023-04-04T03:00:32;103150.72;;;-0.71;80.63
71770;BME280;66386;52.122;5.420;2023-04-04T03:02:58;103148.13;;;-0.72;80.60
71770;BME280;66386;52.122;5.420;2023-04-04T03:05:26;103152.31;;;-0.73;80.67
71770;BME280;66386;52.122;5.420;2023-04-04T03:07:56;103156.41;;;-0.75;80.80
71770;BME280;66386;52.122;5.420;2023-04-04T03:10:24;103148.69;;;-0.78;80.46
71770;BME280;66386;52.122;5.420;2023-04-04T03:12:51;103152.81;;;-0.80;80.76
71770;BME280;66386;52.122;5.420;2023-04-04T03:15:18;103150.94;;;-0.84;80.84
71770;BME280;66386;52.122;5.420;2023-04-04T03:17:44;103160.03;;;-0.88;81.14
71770;BME280;66386;52.122;5.420;2023-04-04T03:20:12;103156.53;;;-0.90;81.08
71770;BME280;66386;52.122;5.420;2023-04-04T03:22:40;103162.31;;;-0.92;81.25
71770;BME280;66386;52.122;5.420;2023-04-04T03:25:07;103160.53;;;-0.95;81.44
71770;BME280;66386;52.122;5.420;2023-04-04T03:27:34;103158.72;;;-0.97;81.37
71770;BME280;66386;52.122;5.420;2023-04-04T03:30:00;103157.75;;;-0.99;81.54
71770;BME280;66386;52.122;5.420;2023-04-04T03:32:27;103150.09;;;-1.01;81.59
71770;BME280;66386;52.122;5.420;2023-04-04T03:34:54;103148.31;;;-1.03;81.58
71770;BME280;66386;52.122;5.420;2023-04-04T03:37:20;103144.06;;;-1.04;81.77
71770;BME280;66386;52.122;5.420;2023-04-04T03:39:48;103143.03;;;-1.08;81.80
71770;BME280;66386;52.122;5.420;2023-04-04T03:42:14;103142.97;;;-1.10;81.71
71770;BME280;66386;52.122;5.420;2023-04-04T03:44:41;103141.16;;;-1.12;81.70
71770;BME280;66386;52.122;5.420;2023-04-04T03:47:08;103145.25;;;-1.14;81.86
71770;BME280;66386;52.122;5.420;2023-04-04T03:49:34;103142.59;;;-1.17;82.03
71770;BME280;66386;52.122;5.420;2023-04-04T03:52:00;103145.97;;;-1.17;81.96
71770;BME280;66386;52.122;5.420;2023-04-04T03:54:30;103146.78;;;-1.18;82.11
71770;BME280;66386;52.122;5.420;2023-04-04T03:56:56;103142.44;;;-1.20;82.11
71770;BME280;66386;52.122;5.420;2023-04-04T03:59:23;103135.50;;;-1.25;82.41
71770;BME280;66386;52.122;5.420;2023-04-04T04:01:50;103143.00;;;-1.26;82.26
71770;BME280;66386;52.122;5.420;2023-04-04T04:04:17;103149.66;;;-1.28;82.34
71770;BME280;66386;52.122;5.420;2023-04-04T04:06:43;103146.09;;;-1.32;82.42
71770;BME280;66386;52.122;5.420;2023-04-04T04:09:10;103150.97;;;-1.35;82.57
71770;BME280;66386;52.122;5.420;2023-04-04T04:11:37;103147.59;;;-1.35;82.47
71770;BME280;66386;52.122;5.420;2023-04-04T04:14:03;103153.28;;;-1.39;82.51
71770;BME280;66386;52.122;5.420;2023-04-04T04:16:30;103152.34;;;-1.42;82.78
71770;BME280;66386;52.122;5.420;2023-04-04T04:18:58;103157.28;;;-1.43;82.71
71770;BME280;66386;52.122;5.420;2023-04-04T04:21:24;103154.63;;;-1.46;82.92
71770;BME280;66386;52.122;5.420;2023-04-04T04:23:51;103151.25;;;-1.47;82.60
71770;BME280;66386;52.122;5.420;2023-04-04T04:26:18;103155.28;;;-1.50;82.76
71770;BME280;66386;52.122;5.420;2023-04-04T04:28:44;103154.38;;;-1.51;82.82
71770;BME280;66386;52.122;5.420;2023-04-04T04:31:13;103152.56;;;-1.53;83.04
71770;BME280;66386;52.122;5.420;2023-04-04T04:33:39;103151.72;;;-1.54;83.12
71770;BME280;66386;52.122;5.420;2023-04-04T04:36:06;103149.97;;;-1.55;83.33
71770;BME280;66386;52.122;5.420;2023-04-04T04:38:33;103156.59;;;-1.57;83.15
71770;BME280;66386;52.122;5.420;2023-04-04T04:40:59;103157.31;;;-1.60;83.19
71770;BME280;66386;52.122;5.420;2023-04-04T04:43:26;103148.81;;;-1.62;83.37
71770;BME280;66386;52.122;5.420;2023-04-04T04:45:53;103150.31;;;-1.65;83.45
71770;BME280;66386;52.122;5.420;2023-04-04T04:48:19;103150.31;;;-1.65;83.53
71770;BME280;66386;52.122;5.420;2023-04-04T04:50:46;103148.59;;;-1.66;83.45
71770;BME280;66386;52.122;5.420;2023-04-04T04:53:13;103152.66;;;-1.68;83.73
71770;BME280;66386;52.122;5.420;2023-04-04T04:55:40;103159.31;;;-1.70;83.54
71770;BME280;66386;52.122;5.420;2023-04-04T04:58:08;103164.34;;;-1.70;83.80
71770;BME280;66386;52.122;5.420;2023-04-04T05:00:36;103158.34;;;-1.72;83.82
71770;BME280;66386;52.122;5.420;2023-04-04T05:03:03;103155.75;;;-1.74;83.51
71770;BME280;66386;52.122;5.420;2023-04-04T05:05:33;103160.69;;;-1.76;83.89
71770;BME280;66386;52.122;5.420;2023-04-04T05:08:03;103166.56;;;-1.77;83.69
71770;BME280;66386;52.122;5.420;2023-04-04T05:10:30;103157.25;;;-1.78;83.84
71770;BME280;66386;52.122;5.420;2023-04-04T05:12:57;103158.09;;;-1.77;83.62
71770;BME280;66386;52.122;5.420;2023-04-04T05:15:23;103167.25;;;-1.79;84.07
71770;BME280;66386;52.122;5.420;2023-04-04T05:17:54;103159.78;;;-1.78;84.11
71770;BME280;66386;52.122;5.420;2023-04-04T05:20:21;103163.06;;;-1.79;84.49
71770;BME280;66386;52.122;5.420;2023-04-04T05:22:47;103156.41;;;-1.78;84.17
71770;BME280;66386;52.122;5.420;2023-04-04T05:25:16;103157.25;;;-1.78;84.39
71770;BME280;66386;52.122;5.420;2023-04-04T05:27:46;103164.88;;;-1.76;84.06
71770;BME280;66386;52.122;5.420;2023-04-04T05:30:14;103165.59;;;-1.79;84.32
71770;BME280;66386;52.122;5.420;2023-04-04T05:32:40;103161.44;;;-1.78;84.14
71770;BME280;66386;52.122;5.420;2023-04-04T05:35:07;103161.50;;;-1.77;84.34
71770;BME280;66386;52.122;5.420;2023-04-04T05:37:37;103164.03;;;-1.77;84.20
71770;BME280;66386;52.122;5.420;2023-04-04T05:40:05;103157.31;;;-1.76;84.47
71770;BME280;66386;52.122;5.420;2023-04-04T05:42:32;103166.63;;;-1.75;84.44
71770;BME280;66386;52.122;5.420;2023-04-04T05:44:58;103170.00;;;-1.74;84.68
71770;BME280;66386;52.122;5.420;2023-04-04T05:47:25;103162.59;;;-1.71;84.59
71770;BME280;66386;52.122;5.420;2023-04-04T05:49:51;103168.59;;;-1.69;84.49
71770;BME280;66386;52.122;5.420;2023-04-04T05:52:18;103166.16;;;-1.68;84.63
71770;BME280;66386;52.122;5.420;2023-04-04T05:54:44;103177.19;;;-1.66;84.74
71770;BME280;66386;52.122;5.420;2023-04-04T05:57:11;103171.28;;;-1.66;84.82
71770;BME280;66386;52.122;5.420;2023-04-04T05:59:38;103171.34;;;-1.65;84.82
71770;BME280;66386;52.122;5.420;2023-04-04T06:02:04;103167.16;;;-1.64;84.83
71770;BME280;66386;52.122;5.420;2023-04-04T06:04:31;103172.38;;;-1.61;84.64
71770;BME280;66386;52.122;5.420;2023-04-04T06:06:58;103172.53;;;-1.58;84.64
71770;BME280;66386;52.122;5.420;2023-04-04T06:09:26;103171.75;;;-1.57;84.90
71770;BME280;66386;52.122;5.420;2023-04-04T06:11:53;103171.03;;;-1.54;84.92
71770;BME280;66386;52.122;5.420;2023-04-04T06:14:19;103175.28;;;-1.53;85.08
71770;BME280;66386;52.122;5.420;2023-04-04T06:16:46;103177.31;;;-1.46;84.84
71770;BME280;66386;52.122;5.420;2023-04-04T06:19:12;103169.13;;;-1.42;84.86
71770;BME280;66386;52.122;5.420;2023-04-04T06:21:39;103171.88;;;-1.37;84.71
71770;BME280;66386;52.122;5.420;2023-04-04T06:24:05;103167.09;;;-1.33;84.81
71770;BME280;66386;52.122;5.420;2023-04-04T06:26:32;103166.41;;;-1.29;84.75
71770;BME280;66386;52.122;5.420;2023-04-04T06:28:58;103156.66;;;-1.23;84.61
71770;BME280;66386;52.122;5.420;2023-04-04T06:31:25;103152.59;;;-1.19;84.62
71770;BME280;66386;52.122;5.420;2023-04-04T06:33:52;103167.25;;;-1.12;84.75
71770;BME280;66386;52.122;5.420;2023-04-04T06:36:18;103170.97;;;-1.05;84.72
71770;BME280;66386;52.122;5.420;2023-04-04T06:38:46;103163.63;;;-1.00;84.75
71770;BME280;66386;52.122;5.420;2023-04-04T06:41:12;103174.16;;;-0.91;84.50
71770;BME280;66386;52.122;5.420;2023-04-04T06:43:39;103185.41;;;-0.84;84.88
71770;BME280;66386;52.122;5.420;2023-04-04T06:46:05;103186.50;;;-0.79;84.87
71770;BME280;66386;52.122;5.420;2023-04-04T06:48:32;103178.34;;;-0.74;85.11
71770;BME280;66386;52.122;5.420;2023-04-04T06:50:58;103179.59;;;-0.65;84.87
71770;BME280;66386;52.122;5.420;2023-04-04T06:53:25;103187.53;;;-0.58;84.96
71770;BME280;66386;52.122;5.420;2023-04-04T06:55:51;103194.66;;;-0.49;85.06
71770;BME280;66386;52.122;5.420;2023-04-04T06:58:18;103194.09;;;-0.43;84.99
71770;BME280;66386;52.122;5.420;2023-04-04T07:00:45;103191.06;;;-0.36;84.69
71770;BME280;66386;52.122;5.420;2023-04-04T07:03:11;103186.63;;;-0.22;84.54
71770;BME280;66386;52.122;5.420;2023-04-04T07:05:38;103194.13;;;-0.06;84.27
71770;BME280;66386;52.122;5.420;2023-04-04T07:08:05;103177.16;;;0.11;84.16
71770;BME280;66386;52.122;5.420;2023-04-04T07:10:32;103172.84;;;0.28;83.99
71770;BME280;66386;52.122;5.420;2023-04-04T07:12:58;103185.56;;;0.49;83.75
71770;BME280;66386;52.122;5.420;2023-04-04T07:15:25;103176.47;;;0.74;83.31
71770;BME280;66386;52.122;5.420;2023-04-04T07:17:53;103179.34;;;1.03;82.72
71770;BME280;66386;52.122;5.420;2023-04-04T07:20:19;103180.63;;;1.35;81.99
71770;BME280;66386;52.122;5.420;2023-04-04T07:22:47;103188.56;;;1.66;80.81
71770;BME280;66386;52.122;5.420;2023-04-04T07:25:13;103184.78;;;2.01;80.50
71770;BME280;66386;52.122;5.420;2023-04-04T07:27:40;103189.19;;;2.30;79.19
71770;BME280;66386;52.122;5.420;2023-04-04T07:30:08;103179.91;;;2.54;77.89
71770;BME280;66386;52.122;5.420;2023-04-04T07:32:35;103183.31;;;2.81;76.52
71770;BME280;66386;52.122;5.420;2023-04-04T07:35:06;103185.75;;;3.03;76.21
71770;BME280;66386;52.122;5.420;2023-04-04T07:37:35;103178.63;;;3.19;75.95
71770;BME280;66386;52.122;5.420;2023-04-04T07:40:05;103169.31;;;3.46;74.73
71770;BME280;66386;52.122;5.420;2023-04-04T07:42:33;103171.56;;;3.66;74.37
71770;BME280;66386;52.122;5.420;2023-04-04T07:44:59;103173.56;;;3.76;72.87
71770;BME280;66386;52.122;5.420;2023-04-04T07:47:26;103177.25;;;3.86;72.29
71770;BME280;66386;52.122;5.420;2023-04-04T07:49:53;103188.53;;;3.94;71.77
71770;BME280;66386;52.122;5.420;2023-04-04T07:52:19;103179.31;;;3.99;70.87
71770;BME280;66386;52.122;5.420;2023-04-04T07:54:46;103176.88;;;4.02;70.35
71770;BME280;66386;52.122;5.420;2023-04-04T07:57:13;103164.81;;;3.97;70.13
71770;BME280;66386;52.122;5.420;2023-04-04T07:59:40;103167.00;;;3.83;70.10
71770;BME280;66386;52.122;5.420;2023-04-04T08:02:06;103170.97;;;3.75;70.32
71770;BME280;66386;52.122;5.420;2023-04-04T08:04:32;103163.72;;;3.87;69.88
71770;BME280;66386;52.122;5.420;2023-04-04T08:06:59;103170.28;;;4.09;70.50
71770;BME280;66386;52.122;5.420;2023-04-04T08:09:25;103162.69;;;4.43;68.57
71770;BME280;66386;52.122;5.420;2023-04-04T08:11:59;103164.00;;;4.60;67.73
71770;BME280;66386;52.122;5.420;2023-04-04T08:14:27;103166.84;;;4.72;66.72
71770;BME280;66386;52.122;5.420;2023-04-04T08:16:53;103156.50;;;5.01;66.34
71770;BME280;66386;52.122;5.420;2023-04-04T08:19:20;103160.22;;;5.14;66.09
71770;BME280;66386;52.122;5.420;2023-04-04T08:21:47;103162.47;;;5.40;63.97
71770;BME280;66386;52.122;5.420;2023-04-04T08:24:13;103157.94;;;5.66;63.46
71770;BME280;66386;52.122;5.420;2023-04-04T08:26:40;103164.59;;;5.99;63.30
71770;BME280;66386;52.122;5.420;2023-04-04T08:29:10;103153.91;;;6.19;61.94
71770;BME280;66386;52.122;5.420;2023-04-04T08:31:36;103150.94;;;6.43;62.01
71770;BME280;66386;52.122;5.420;2023-04-04T08:34:04;103147.13;;;6.70;59.27
71770;BME280;66386;52.122;5.420;2023-04-04T08:36:33;103149.81;;;6.79;56.96
71770;BME280;66386;52.122;5.420;2023-04-04T08:39:00;103147.50;;;6.93;55.75
71770;BME280;66386;52.122;5.420;2023-04-04T08:41:29;103144.19;;;6.98;54.28
71770;BME280;66386;52.122;5.420;2023-04-04T08:44:00;103139.91;;;6.97;54.35
71770;BME280;66386;52.122;5.420;2023-04-04T08:46:28;103146.28;;;7.24;55.28
71770;BME280;66386;52.122;5.420;2023-04-04T08:48:55;103141.38;;;7.41;52.89
71770;BME280;66386;52.122;5.420;2023-04-04T08:51:23;103143.22;;;7.50;52.51
71770;BME280;66386;52.122;5.420;2023-04-04T08:53:52;103141.56;;;7.54;50.56
71770;BME280;66386;52.122;5.420;2023-04-04T08:56:19;103139.22;;;7.72;49.50
71770;BME280;66386;52.122;5.420;2023-04-04T08:58:46;103131.72;;;7.86;48.75
71770;BME280;66386;52.122;5.420;2023-04-04T09:01:13;103142.03;;;7.95;47.28
71770;BME280;66386;52.122;5.420;2023-04-04T09:03:42;103139.53;;;8.00;46.72
71770;BME280;66386;52.122;5.420;2023-04-04T09:06:09;103139.69;;;8.12;45.77
71770;BME280;66386;52.122;5.420;2023-04-04T09:08:37;103139.06;;;8.38;45.78
71770;BME280;66386;52.122;5.420;2023-04-04T09:11:05;103137.69;;;8.71;43.56
71770;BME280;66386;52.122;5.420;2023-04-04T09:13:32;103142.22;;;9.04;43.00
71770;BME280;66386;52.122;5.420;2023-04-04T09:15:59;103128.75;;;9.46;43.94
71770;BME280;66386;52.122;5.420;2023-04-04T09:18:25;103134.97;;;10.02;43.57
71770;BME280;66386;52.122;5.420;2023-04-04T09:20:52;103135.88;;;10.42;42.73
71770;BME280;66386;52.122;5.420;2023-04-04T09:23:19;103140.16;;;10.96;42.65
71770;BME280;66386;52.122;5.420;2023-04-04T09:25:51;103137.50;;;11.34;42.41
71770;BME280;66386;52.122;5.420;2023-04-04T09:28:29;103134.88;;;11.51;40.70
71770;BME280;66386;52.122;5.420;2023-04-04T09:30:59;103138.22;;;11.72;40.43
71770;BME280;66386;52.122;5.420;2023-04-04T09:33:26;103134.72;;;11.82;40.39
71770;BME280;66386;52.122;5.420;2023-04-04T09:36:11;103138.19;;;11.83;41.10
71770;BME280;66386;52.122;5.420;2023-04-04T09:38:39;103135.72;;;11.50;38.51
71770;BME280;66386;52.122;5.420;2023-04-04T09:41:09;103134.03;;;11.52;39.23
71770;BME280;66386;52.122;5.420;2023-04-04T09:43:38;103126.38;;;11.31;38.84
71770;BME280;66386;52.122;5.420;2023-04-04T09:46:05;103130.75;;;11.01;39.96
71770;BME280;66386;52.122;5.420;2023-04-04T09:48:33;103124.78;;;10.57;39.55
71770;BME280;66386;52.122;5.420;2023-04-04T09:51:03;103125.53;;;10.04;41.42
71770;BME280;66386;52.122;5.420;2023-04-04T09:53:33;103127.19;;;9.89;42.68
71770;BME280;66386;52.122;5.420;2023-04-04T09:56:01;103125.47;;;9.77;42.22
71770;BME280;66386;52.122;5.420;2023-04-04T09:58:29;103123.72;;;9.75;41.63
71770;BME280;66386;52.122;5.420;2023-04-04T10:01:02;103120.31;;;9.74;42.37
71770;BME280;66386;52.122;5.420;2023-04-04T10:03:29;103121.13;;;9.63;41.56
71770;BME280;66386;52.122;5.420;2023-04-04T10:06:04;103119.41;;;9.60;42.09
71770;BME280;66386;52.122;5.420;2023-04-04T10:08:33;103115.16;;;9.71;43.45
71770;BME280;66386;52.122;5.420;2023-04-04T10:11:02;103122.06;;;9.88;43.60
71770;BME280;66386;52.122;5.420;2023-04-04T10:13:37;103108.31;;;9.73;42.46
71770;BME280;66386;52.122;5.420;2023-04-04T10:16:08;103110.91;;;9.79;42.80
71770;BME280;66386;52.122;5.420;2023-04-04T10:18:36;103102.34;;;9.87;43.68
71770;BME280;66386;52.122;5.420;2023-04-04T10:21:04;103105.75;;;9.81;43.42
71770;BME280;66386;52.122;5.420;2023-04-04T10:23:34;103098.94;;;9.83;43.38
71770;BME280;66386;52.122;5.420;2023-04-04T10:26:02;103097.19;;;9.74;43.03
71770;BME280;66386;52.122;5.420;2023-04-04T10:28:28;103098.03;;;9.73;43.80
71770;BME280;66386;52.122;5.420;2023-04-04T10:36:29;103087.88;;;10.10;42.57
71770;BME280;66386;52.122;5.420;2023-04-04T10:39:03;103078.44;;;10.03;42.79
71770;BME280;66386;52.122;5.420;2023-04-04T10:41:34;103072.41;;;9.92;42.57
71770;BME280;66386;52.122;5.420;2023-04-04T10:44:10;103082.66;;;9.79;42.77
71770;BME280;66386;52.122;5.420;2023-04-04T10:46:40;103083.47;;;9.60;41.39
71770;BME280;66386;52.122;5.420;2023-04-04T10:49:08;103074.84;;;9.46;41.71
71770;BME280;66386;52.122;5.420;2023-04-04T10:51:35;103068.06;;;9.69;42.48
71770;BME280;66386;52.122;5.420;2023-04-04T10:54:18;103064.72;;;9.90;41.78
71770;BME280;66386;52.122;5.420;2023-04-04T10:56:46;103063.03;;;10.12;41.49
71770;BME280;66386;52.122;5.420;2023-04-04T10:59:15;103063.03;;;10.11;42.38
71770;BME280;66386;52.122;5.420;2023-04-04T11:02:01;103065.63;;;10.36;43.24
71770;BME280;66386;52.122;5.420;2023-04-04T11:04:33;103062.19;;;10.58;42.66
71770;BME280;66386;52.122;5.420;2023-04-04T11:07:08;103065.59;;;10.70;42.42
71770;BME280;66386;52.122;5.420;2023-04-04T11:09:52;103063.91;;;10.73;42.42
71770;BME280;66386;52.122;5.420;2023-04-04T11:12:29;103055.28;;;10.80;41.70
71770;BME280;66386;52.122;5.420;2023-04-04T11:15:05;103056.16;;;10.72;39.55
71770;BME280;66386;52.122;5.420;2023-04-04T11:17:41;103051.03;;;10.76;40.87
71770;BME280;66386;52.122;5.420;2023-04-04T11:20:35;103055.31;;;10.85;41.57
71770;BME280;66386;52.122;5.420;2023-04-04T11:23:17;103043.25;;;10.92;39.84
71770;BME280;66386;52.122;5.420;2023-04-04T11:25:53;103028.72;;;10.74;39.40
71770;BME280;66386;52.122;5.420;2023-04-04T11:28:41;103042.44;;;10.79;39.73
71770;BME280;66386;52.122;5.420;2023-04-04T11:39:27;103032.09;;;10.99;39.91
71770;BME280;66386;52.122;5.420;2023-04-04T11:44:40;103024.34;;;11.07;38.72
71770;BME280;66386;52.122;5.420;2023-04-04T11:49:41;103030.31;;;11.15;39.80
71770;BME280;66386;52.122;5.420;2023-04-04T11:52:12;103015.63;;;11.35;39.65
71770;BME280;66386;52.122;5.420;2023-04-04T11:54:40;103017.22;;;11.63;39.78
71770;BME280;66386;52.122;5.420;2023-04-04T11:57:10;103015.38;;;11.79;40.10
71770;BME280;66386;52.122;5.420;2023-04-04T11:59:46;103017.91;;;11.86;39.13
71770;BME280;66386;52.122;5.420;2023-04-04T12:02:24;103007.78;;;11.57;37.40
71770;BME280;66386;52.122;5.420;2023-04-04T12:04:53;103006.22;;;11.36;38.83
71770;BME280;66386;52.122;5.420;2023-04-04T12:07:22;103006.16;;;11.45;39.06
71770;BME280;66386;52.122;5.420;2023-04-04T12:09:50;103003.56;;;11.45;38.41
71770;BME280;66386;52.122;5.420;2023-04-04T12:12:17;102992.38;;;11.54;38.67
71770;BME280;66386;52.122;5.420;2023-04-04T12:14:43;102994.94;;;11.52;39.59
71770;BME280;66386;52.122;5.420;2023-04-04T12:17:10;102986.38;;;11.47;39.22
71770;BME280;66386;52.122;5.420;2023-04-04T12:19:38;102981.25;;;11.46;38.40
71770;BME280;66386;52.122;5.420;2023-04-04T12:22:04;102978.66;;;11.46;38.08
71770;BME280;66386;52.122;5.420;2023-04-04T12:24:34;102977.72;;;11.64;38.74
71770;BME280;66386;52.122;5.420;2023-04-04T12:27:01;102970.75;;;11.75;37.50
71770;BME280;66386;52.122;5.420;2023-04-04T12:29:29;102977.69;;;11.68;37.41
71770;BME280;66386;52.122;5.420;2023-04-04T12:32:02;102968.31;;;11.55;37.38
71770;BME280;66386;52.122;5.420;2023-04-04T12:34:31;102964.03;;;11.56;37.78
71770;BME280;66386;52.122;5.420;2023-04-04T12:37:00;102963.22;;;11.44;37.41
71770;BME280;66386;52.122;5.420;2023-04-04T12:39:28;102958.94;;;11.46;37.29
71770;BME280;66386;52.122;5.420;2023-04-04T12:42:00;102958.81;;;11.62;38.64
71770;BME280;66386;52.122;5.420;2023-04-04T12:44:35;102954.53;;;11.65;38.32
71770;BME280;66386;52.122;5.420;2023-04-04T12:47:08;102951.22;;;11.48;38.03
71770;BME280;66386;52.122;5.420;2023-04-04T12:49:45;102948.53;;;11.62;38.78
71770;BME280;66386;52.122;5.420;2023-04-04T12:52:25;102947.63;;;11.67;39.09
71770;BME280;66386;52.122;5.420;2023-04-04T12:54:52;102943.50;;;11.45;37.84
71770;BME280;66386;52.122;5.420;2023-04-04T12:57:38;102943.50;;;11.46;37.69
71770;BME280;66386;52.122;5.420;2023-04-04T13:00:05;102943.53;;;11.35;37.29
71770;BME280;66386;52.122;5.420;2023-04-04T13:02:35;102939.22;;;11.42;38.89
71770;BME280;66386;52.122;5.420;2023-04-04T13:05:02;102934.13;;;11.31;37.35
71770;BME280;66386;52.122;5.420;2023-04-04T13:07:31;102928.25;;;11.09;37.36
71770;BME280;66386;52.122;5.420;2023-04-04T13:10:00;102935.13;;;11.07;38.31
71770;BME280;66386;52.122;5.420;2023-04-04T13:12:53;102923.16;;;11.02;38.42
71770;BME280;66386;52.122;5.420;2023-04-04T13:15:22;102916.25;;;11.11;38.31
71770;BME280;66386;52.122;5.420;2023-04-04T13:17:49;102911.06;;;11.17;40.27
71770;BME280;66386;52.122;5.420;2023-04-04T13:20:17;102911.03;;;11.22;38.38
71770;BME280;66386;52.122;5.420;2023-04-04T13:22:44;102914.47;;;11.18;39.45